Rossett, United Kingdom
Current Conditions -  °F | °C
As of 2:50 PM on Sunday 23 Nov 2014 (Local Time) from EGNR Reporting Station
Scattered Clouds Scattered Clouds  
Wind Chill: 44°   Ceiling: Unl
Heat Index: 48°   Visibility: 6mi
Dew Point: 39°   Wind: 9mph
Humidity: 71%   Direction: 310°NW
Pressure: 30.09"   Gusts: NA
Location:  53.11°N, 2.94°W
Report Text: EGNR 231450Z 31008KT 9999 SCT025 09/04 Q1019
Loading
Personal Weather Stations






























Interactive Weather Map New forecast layout! Learn more

10-Day Weather Forecast

Advertisements
Track Severe Weather on mobile